Time;durP1;ratioP1;P1;durP2;ratioP2;P2;SDS_P1;SDS_P2;PMS_P1;PMS_P2;Temp;Humidity;BMP_temperature;BMP_pressure;BME280_temperature;BME280_humidity;BME280_pressure;Samples;Min_cycle;Max_cycle;Signal;HPM_P1;HPM_P2
2022/05/20 00:02:06;;;;;;;2.57;2.37;;;24.10;99.90;;;;;;5021573;28;20480;-80
2022/05/20 00:04:35;;;;;;;2.77;2.57;;;24.10;99.90;;;;;;5021673;28;20499;-81
2022/05/20 00:07:03;;;;;;;2.90;2.60;;;24.10;99.90;;;;;;5025713;28;20484;-80
2022/05/20 00:09:32;;;;;;;4.20;3.00;;;24.00;99.90;;;;;;5027508;28;20464;-80
2022/05/20 00:12:00;;;;;;;2.67;2.47;;;23.90;99.90;;;;;;5023256;28;20480;-80
2022/05/20 00:14:30;;;;;;;2.70;1.93;;;23.80;99.90;;;;;;5024463;28;20440;-80
2022/05/20 00:17:01;;;;;;;2.67;2.47;;;23.80;99.90;;;;;;5018549;28;20483;-82
2022/05/20 00:19:29;;;;;;;3.20;2.30;;;23.80;99.90;;;;;;5021150;28;20453;-80
2022/05/20 00:21:58;;;;;;;2.77;2.57;;;23.80;99.90;;;;;;5022577;28;20455;-81
2022/05/20 00:24:27;;;;;;;3.33;2.63;;;23.80;99.90;;;;;;5023883;28;20538;-81
2022/05/20 00:26:56;;;;;;;3.43;2.47;;;23.80;99.90;;;;;;5024627;28;21173;-81
2022/05/20 00:29:25;;;;;;;2.67;2.47;;;23.80;99.90;;;;;;5025741;28;20453;-80
2022/05/20 00:31:55;;;;;;;3.43;2.57;;;23.80;99.90;;;;;;5023974;28;20449;-81
2022/05/20 00:34:23;;;;;;;2.97;2.73;;;24.00;99.90;;;;;;5028296;28;21097;-80
2022/05/20 00:36:51;;;;;;;2.90;2.17;;;24.00;99.90;;;;;;5024438;28;20493;-81
2022/05/20 00:39:20;;;;;;;3.90;2.50;;;24.10;99.90;;;;;;5027555;28;20483;-81
2022/05/20 00:41:48;;;;;;;4.70;2.67;;;24.00;99.90;;;;;;5027930;28;20448;-81
2022/05/20 00:44:16;;;;;;;2.60;2.40;;;24.10;99.90;;;;;;5024062;28;20465;-80
2022/05/20 00:46:44;;;;;;;3.80;2.50;;;24.10;99.90;;;;;;5020445;28;21076;-80
2022/05/20 00:49:16;;;;;;;3.13;2.43;;;24.10;99.90;;;;;;5026747;28;20465;-80
2022/05/20 00:51:49;;;;;;;3.20;3.00;;;24.10;99.90;;;;;;5025836;28;20460;-81
2022/05/20 00:54:20;;;;;;;3.17;2.90;;;24.00;99.90;;;;;;5022789;28;20803;-81
2022/05/20 00:56:55;;;;;;;2.53;2.33;;;24.00;99.90;;;;;;5019803;28;20491;-80
2022/05/20 00:59:28;;;;;;;2.50;2.30;;;24.00;99.90;;;;;;5014676;28;20455;-80
2022/05/20 01:02:00;;;;;;;3.57;2.40;;;24.00;99.90;;;;;;5023070;28;20464;-80
2022/05/20 01:04:30;;;;;;;2.50;2.00;;;24.00;99.90;;;;;;5028574;28;20450;-80
2022/05/20 01:06:59;;;;;;;2.43;2.30;;;24.00;99.90;;;;;;5019618;28;20473;-80
2022/05/20 01:09:27;;;;;;;3.60;2.40;;;23.90;99.90;;;;;;5025522;28;20468;-81
2022/05/20 01:11:56;;;;;;;3.10;2.90;;;23.90;99.90;;;;;;5013715;28;20448;-80
2022/05/20 01:14:26;;;;;;;2.50;2.30;;;23.90;99.90;;;;;;5015100;28;20455;-79
2022/05/20 01:16:54;;;;;;;3.37;3.07;;;23.80;99.90;;;;;;5019498;28;20491;-80
2022/05/20 01:19:35;;;;;;;2.70;2.47;;;23.70;99.90;;;;;;5016468;28;20944;-80
2022/05/20 01:22:05;;;;;;;3.37;2.77;;;23.70;99.90;;;;;;5018451;28;20471;-80
2022/05/20 01:24:36;;;;;;;2.87;2.57;;;23.80;99.90;;;;;;5028550;28;20456;-80
2022/05/20 01:27:05;;;;;;;6.40;2.77;;;23.80;99.90;;;;;;5013281;28;20512;-80
2022/05/20 01:29:34;;;;;;;3.87;3.47;;;23.90;99.90;;;;;;5023469;28;20456;-81
2022/05/20 01:32:02;;;;;;;3.33;2.30;;;23.90;99.90;;;;;;5022311;28;20463;-80
2022/05/20 01:34:30;;;;;;;3.77;3.17;;;23.80;99.90;;;;;;5019161;28;20467;-80
2022/05/20 01:36:59;;;;;;;2.90;2.70;;;23.80;99.90;;;;;;5017170;28;20503;-80
2022/05/20 01:39:27;;;;;;;2.83;2.37;;;23.80;99.90;;;;;;5028636;28;20467;-81
2022/05/20 01:42:02;;;;;;;3.90;2.67;;;23.70;99.90;;;;;;5020616;28;20452;-81
2022/05/20 01:44:35;;;;;;;2.43;2.10;;;23.60;99.90;;;;;;5022988;28;20506;-81
2022/05/20 01:47:12;;;;;;;3.57;2.40;;;23.50;99.90;;;;;;5032204;28;20479;-81
2022/05/20 01:49:45;;;;;;;3.77;3.43;;;23.50;99.90;;;;;;5017933;28;20461;-81
2022/05/20 01:52:20;;;;;;;4.20;2.70;;;23.50;99.90;;;;;;5021125;28;21006;-81
2022/05/20 01:54:59;;;;;;;2.40;2.20;;;23.50;99.90;;;;;;5021857;28;20464;-80
2022/05/20 01:57:35;;;;;;;3.27;3.07;;;23.40;99.90;;;;;;5016508;28;20495;-80
2022/05/20 02:00:08;;;;;;;4.80;2.57;;;23.40;99.90;;;;;;5024624;28;20826;-80
2022/05/20 02:02:42;;;;;;;2.70;2.50;;;23.40;99.90;;;;;;5011267;28;20468;-80
2022/05/20 02:05:16;;;;;;;2.60;2.40;;;23.40;99.90;;;;;;5021170;28;20563;-79
2022/05/20 02:07:48;;;;;;;2.87;2.67;;;23.40;99.90;;;;;;5018861;28;21195;-81
2022/05/20 02:10:23;;;;;;;3.00;2.70;;;23.40;99.90;;;;;;5021712;28;20493;-81
2022/05/20 02:12:58;;;;;;;3.33;3.03;;;23.40;99.90;;;;;;5010930;28;20491;-81
2022/05/20 02:15:31;;;;;;;4.60;2.63;;;23.40;99.90;;;;;;5018401;28;20457;-81
2022/05/20 02:18:03;;;;;;;2.73;2.53;;;23.40;99.90;;;;;;5022929;28;21012;-81
2022/05/20 02:20:35;;;;;;;4.37;2.30;;;23.40;99.90;;;;;;5026079;28;20463;-81
2022/05/20 02:23:06;;;;;;;4.13;3.73;;;23.30;99.90;;;;;;5022246;28;20987;-80
2022/05/20 02:25:39;;;;;;;2.60;2.37;;;23.40;99.90;;;;;;5020483;28;20810;-80
2022/05/20 02:28:16;;;;;;;3.83;2.60;;;23.40;99.90;;;;;;5025218;28;20494;-81
2022/05/20 02:30:45;;;;;;;3.23;2.70;;;23.40;99.90;;;;;;5016455;28;20462;-79
2022/05/20 02:33:17;;;;;;;4.40;2.70;;;23.40;99.90;;;;;;5021745;28;20468;-79
2022/05/20 02:35:45;;;;;;;4.03;2.90;;;23.40;99.90;;;;;;5017154;28;21033;-79
2022/05/20 02:38:16;;;;;;;2.63;2.43;;;23.30;99.90;;;;;;5024048;28;20496;-79
2022/05/20 02:40:47;;;;;;;3.07;2.80;;;23.30;99.90;;;;;;5029299;28;20466;-79
2022/05/20 02:43:17;;;;;;;3.43;3.13;;;23.20;99.90;;;;;;5016761;28;20468;-79
2022/05/20 02:45:47;;;;;;;3.43;2.83;;;23.20;99.90;;;;;;5017509;28;20455;-79
2022/05/20 02:48:17;;;;;;;4.07;2.77;;;23.30;99.90;;;;;;5019916;28;20451;-79
2022/05/20 02:50:47;;;;;;;3.23;2.93;;;23.30;99.90;;;;;;5016055;28;20521;-79
2022/05/20 02:53:15;;;;;;;3.83;3.53;;;23.20;99.90;;;;;;5020781;28;20957;-80
2022/05/20 02:55:43;;;;;;;3.50;3.20;;;23.20;99.90;;;;;;5024471;28;20831;-80
2022/05/20 03:04:09;;;;;;;3.73;2.97;;;23.20;99.90;;;;;;5017602;28;20485;-80
2022/05/20 03:04:13;;;;;;;3.23;2.60;;;23.20;99.90;;;;;;5010697;28;20456;-80
2022/05/20 03:06:43;;;;;;;3.60;3.30;;;23.20;99.90;;;;;;5012838;28;20483;-81
2022/05/20 03:09:13;;;;;;;5.50;2.90;;;23.20;99.90;;;;;;5018033;28;20448;-83
2022/05/20 03:11:42;;;;;;;4.10;3.80;;;23.20;99.90;;;;;;5023831;28;20467;-82
2022/05/20 03:14:13;;;;;;;2.73;2.53;;;23.20;99.90;;;;;;5019606;28;20464;-82
2022/05/20 03:16:43;;;;;;;4.30;3.87;;;23.30;99.90;;;;;;5012880;28;20503;-81
2022/05/20 03:19:12;;;;;;;3.30;3.10;;;23.30;99.90;;;;;;5014880;28;20484;-82
2022/05/20 03:21:42;;;;;;;3.17;2.97;;;23.30;99.90;;;;;;5017797;28;20474;-82
2022/05/20 03:24:11;;;;;;;2.93;2.63;;;23.40;99.90;;;;;;5019649;28;21241;-80
2022/05/20 03:26:40;;;;;;;2.73;2.53;;;23.40;99.90;;;;;;5012161;28;20477;-81
2022/05/20 03:29:08;;;;;;;3.60;3.30;;;23.40;99.90;;;;;;5020944;28;20469;-83
2022/05/20 03:31:38;;;;;;;5.23;3.30;;;23.40;99.90;;;;;;5015481;28;20467;-80
2022/05/20 03:34:09;;;;;;;4.17;2.70;;;23.50;99.90;;;;;;5019697;28;20499;-82
2022/05/20 03:36:38;;;;;;;5.07;2.83;;;23.40;99.90;;;;;;5021628;28;20480;-82
2022/05/20 03:39:08;;;;;;;4.80;3.13;;;23.40;99.90;;;;;;5020322;28;20483;-82
2022/05/20 03:41:37;;;;;;;3.93;3.53;;;23.40;99.90;;;;;;5019860;28;20535;-81
2022/05/20 03:44:06;;;;;;;3.50;3.30;;;23.40;99.90;;;;;;5022976;28;20467;-81
2022/05/20 03:46:39;;;;;;;2.60;2.40;;;23.50;99.90;;;;;;5014623;28;20485;-81
2022/05/20 03:49:09;;;;;;;4.50;3.90;;;23.40;99.90;;;;;;5020066;28;20457;-80
2022/05/20 03:51:38;;;;;;;3.23;3.03;;;23.40;99.90;;;;;;5019453;28;20459;-80
2022/05/20 03:54:06;;;;;;;4.20;3.10;;;23.40;99.90;;;;;;5032297;28;20463;-81
2022/05/20 03:56:35;;;;;;;4.37;2.80;;;23.40;99.90;;;;;;5027623;28;20486;-83
2022/05/20 03:59:03;;;;;;;3.17;2.97;;;23.50;99.90;;;;;;5027512;28;20477;-81
2022/05/20 04:04:20;;;;;;;3.07;2.87;;;23.50;99.90;;;;;;5013838;28;20980;-82
2022/05/20 04:06:49;;;;;;;3.43;3.13;;;23.50;99.90;;;;;;5027120;28;20499;-83
2022/05/20 04:09:18;;;;;;;9.43;3.40;;;23.50;99.90;;;;;;5026959;28;20838;-83
2022/05/20 04:11:46;;;;;;;3.67;3.30;;;23.50;99.90;;;;;;5021115;28;20952;-81
2022/05/20 04:14:14;;;;;;;3.63;3.00;;;23.50;99.90;;;;;;5026352;28;20518;-81
2022/05/20 04:16:43;;;;;;;3.10;2.90;;;23.50;99.90;;;;;;5026116;28;21030;-83
2022/05/20 04:19:11;;;;;;;4.80;2.87;;;23.50;99.90;;;;;;5022805;28;20481;-81
2022/05/20 04:21:42;;;;;;;3.63;3.20;;;23.50;99.90;;;;;;5022730;28;20516;-80
2022/05/20 04:24:10;;;;;;;4.90;2.33;;;23.60;99.90;;;;;;5023263;28;20978;-80
2022/05/20 04:26:38;;;;;;;3.17;2.53;;;23.60;99.90;;;;;;5033989;28;20479;-81
2022/05/20 04:29:06;;;;;;;2.60;2.40;;;23.60;99.90;;;;;;5014653;28;20459;-81
2022/05/20 04:31:35;;;;;;;3.17;2.90;;;23.60;99.90;;;;;;5019614;28;21070;-81
2022/05/20 04:34:04;;;;;;;2.93;2.50;;;23.60;99.90;;;;;;5018771;28;20503;-78
2022/05/20 04:36:32;;;;;;;2.63;2.43;;;23.60;99.90;;;;;;5023673;28;20471;-75
2022/05/20 04:39:01;;;;;;;2.83;2.63;;;23.50;99.90;;;;;;5014928;28;20484;-75
2022/05/20 04:47:16;;;;;;;6.30;3.10;;;23.50;99.90;;;;;;5018396;28;20714;-74
2022/05/20 04:49:44;;;;;;;2.80;2.47;;;23.00;99.90;;;;;;5016986;28;20456;-75
2022/05/20 04:52:12;;;;;;;3.13;2.37;;;23.30;99.90;;;;;;5016631;28;20456;-74
2022/05/20 04:54:50;;;;;;;3.10;2.83;;;23.40;99.90;;;;;;5018061;28;21056;-75
2022/05/20 04:57:24;;;;;;;2.73;2.57;;;23.40;99.90;;;;;;5014093;28;20483;-75
2022/05/20 04:59:54;;;;;;;4.47;2.83;;;23.40;99.90;;;;;;5022494;28;20471;-76
2022/05/20 05:02:22;;;;;;;2.70;2.50;;;23.40;99.90;;;;;;5017776;28;21058;-76
2022/05/20 05:04:50;;;;;;;2.20;2.00;;;23.50;99.90;;;;;;5020483;28;20471;-76
2022/05/20 05:07:19;;;;;;;2.30;2.10;;;23.40;99.90;;;;;;5014275;28;20839;-76
2022/05/20 05:09:48;;;;;;;2.80;2.60;;;23.20;99.90;;;;;;5023750;28;20475;-77
2022/05/20 05:12:17;;;;;;;2.43;2.10;;;23.20;99.90;;;;;;5021919;28;20458;-78
2022/05/20 05:14:47;;;;;;;2.73;2.07;;;23.30;99.90;;;;;;5015893;28;20467;-78
2022/05/20 05:18:09;;;;;;;2.10;1.90;;;23.40;99.90;;;;;;5022248;28;20472;-79
2022/05/20 05:20:09;;;;;;;3.57;2.07;;;23.10;99.90;;;;;;5015534;28;20483;-80
2022/05/20 05:22:37;;;;;;;2.07;1.90;;;23.00;99.90;;;;;;5024173;28;20448;-80
2022/05/20 05:25:11;;;;;;;2.07;1.80;;;22.90;99.90;;;;;;5025407;28;20559;-79
2022/05/20 05:27:39;;;;;;;2.83;2.37;;;22.80;99.90;;;;;;5027084;28;21017;-79
2022/05/20 05:30:10;;;;;;;2.50;2.30;;;22.90;99.90;;;;;;5021673;28;20448;-79
2022/05/20 05:32:38;;;;;;;2.37;2.10;;;23.00;99.90;;;;;;5022239;28;20452;-80
2022/05/20 05:35:09;;;;;;;3.00;2.00;;;23.20;99.90;;;;;;5027937;28;20453;-79
2022/05/20 05:37:39;;;;;;;2.50;2.30;;;23.10;99.90;;;;;;5026939;28;20467;-79
2022/05/20 05:40:11;;;;;;;2.13;1.87;;;23.20;99.90;;;;;;5024579;28;20469;-80
2022/05/20 05:42:41;;;;;;;2.97;2.70;;;23.20;99.90;;;;;;5026783;28;20453;-80
2022/05/20 05:45:11;;;;;;;2.30;2.10;;;23.20;99.90;;;;;;5028312;28;20498;-79
2022/05/20 05:47:39;;;;;;;2.27;2.07;;;23.30;99.90;;;;;;5010225;28;20477;-80
2022/05/20 05:50:08;;;;;;;2.23;2.00;;;23.50;99.90;;;;;;5015980;28;20448;-80
2022/05/20 05:52:36;;;;;;;3.10;2.20;;;23.60;99.90;;;;;;5016226;28;20445;-80
2022/05/20 05:55:05;;;;;;;2.57;2.20;;;23.10;99.90;;;;;;5016539;28;20513;-79
2022/05/20 05:57:34;;;;;;;3.30;1.80;;;23.00;99.90;;;;;;5020669;28;20488;-80
2022/05/20 06:00:04;;;;;;;2.40;2.10;;;23.30;99.90;;;;;;5022733;28;20519;-79
2022/05/20 06:02:32;;;;;;;5.53;2.30;;;23.20;99.90;;;;;;5018423;28;20467;-79
2022/05/20 06:05:01;;;;;;;2.63;2.43;;;23.40;99.90;;;;;;5023358;28;20463;-79
2022/05/20 06:07:29;;;;;;;2.70;2.43;;;23.30;99.90;;;;;;5025389;28;21041;-78
2022/05/20 06:09:58;;;;;;;2.73;2.53;;;23.30;99.90;;;;;;5023452;28;20542;-79
2022/05/20 06:12:27;;;;;;;2.77;2.40;;;23.50;99.90;;;;;;5024666;28;20444;-79
2022/05/20 06:14:57;;;;;;;2.80;2.03;;;23.70;99.90;;;;;;5017968;28;20472;-79
2022/05/20 06:17:25;;;;;;;2.40;2.20;;;23.60;99.90;;;;;;5019247;28;20476;-80
2022/05/20 06:19:53;;;;;;;2.57;2.43;;;23.50;99.90;;;;;;5023709;28;20476;-79
2022/05/20 06:22:21;;;;;;;2.30;2.10;;;23.70;99.90;;;;;;5022797;28;20481;-79
2022/05/20 06:24:49;;;;;;;1.80;1.60;;;23.70;99.90;;;;;;5029905;28;21076;-79
2022/05/20 06:27:18;;;;;;;2.23;2.03;;;23.80;99.90;;;;;;5029565;28;20463;-80
2022/05/20 06:29:47;;;;;;;2.10;1.90;;;23.80;99.90;;;;;;5023627;28;20464;-79
2022/05/20 06:32:17;;;;;;;1.80;1.70;;;23.70;99.90;;;;;;5025966;28;20515;-79
2022/05/20 06:40:21;;;;;;;2.33;1.87;;;24.00;99.90;;;;;;5029659;28;20469;-78
2022/05/20 06:42:50;;;;;;;3.93;2.10;;;24.20;99.90;;;;;;5033244;28;20456;-79
2022/05/20 06:45:18;;;;;;;2.00;1.80;;;24.40;99.90;;;;;;5029258;28;20498;-79
2022/05/20 06:47:48;;;;;;;3.10;2.13;;;24.50;99.90;;;;;;5032609;28;20857;-79
2022/05/20 06:50:16;;;;;;;4.70;1.83;;;24.70;99.90;;;;;;5029009;28;20968;-79
2022/05/20 06:52:45;;;;;;;2.47;2.27;;;24.90;99.90;;;;;;5031596;28;20451;-79
2022/05/20 06:55:14;;;;;;;1.70;1.60;;;25.00;99.90;;;;;;5025974;28;20456;-79
2022/05/20 06:57:42;;;;;;;4.20;1.70;;;25.20;99.90;;;;;;5025242;28;20464;-79
2022/05/20 07:00:12;;;;;;;1.50;1.40;;;25.40;99.90;;;;;;5024956;28;20479;-79
2022/05/20 07:02:41;;;;;;;1.90;1.80;;;25.50;99.90;;;;;;5029909;28;21180;-79
2022/05/20 07:05:14;;;;;;;3.17;2.10;;;25.70;99.90;;;;;;5027091;28;20440;-79
2022/05/20 07:07:43;;;;;;;2.30;1.87;;;25.70;99.90;;;;;;5024248;28;20464;-81
2022/05/20 07:10:13;;;;;;;2.00;1.80;;;25.80;99.90;;;;;;5023795;28;20452;-82
2022/05/20 07:12:41;;;;;;;4.90;2.23;;;26.00;99.90;;;;;;5024236;28;20463;-81
2022/05/20 07:15:11;;;;;;;2.30;1.83;;;26.00;99.90;;;;;;5034739;28;20463;-81
2022/05/20 07:17:39;;;;;;;1.70;1.60;;;26.00;99.90;;;;;;5021213;28;21022;-81
2022/05/20 07:20:10;;;;;;;2.37;2.17;;;26.10;99.90;;;;;;5021082;28;20457;-81
2022/05/20 07:22:40;;;;;;;2.30;2.10;;;26.10;99.90;;;;;;5020160;28;20811;-81
2022/05/20 07:25:09;;;;;;;2.07;1.70;;;26.00;99.90;;;;;;5021397;28;20460;-80
2022/05/20 07:27:37;;;;;;;2.67;1.87;;;26.00;99.90;;;;;;5022082;28;20565;-81
2022/05/20 07:30:08;;;;;;;2.13;2.03;;;26.00;99.90;;;;;;5024514;28;20464;-80
2022/05/20 07:32:36;;;;;;;6.60;2.20;;;26.10;99.90;;;;;;5021114;28;21149;-80
2022/05/20 07:35:05;;;;;;;3.30;2.27;;;26.00;99.90;;;;;;5021223;28;20499;-79
2022/05/20 07:37:33;;;;;;;2.33;2.13;;;25.80;99.90;;;;;;5026928;28;20530;-80
2022/05/20 07:40:04;;;;;;;3.17;2.37;;;25.90;99.90;;;;;;5023928;28;20460;-80
2022/05/20 07:42:33;;;;;;;3.63;2.40;;;26.00;99.90;;;;;;5027130;28;20452;-81
2022/05/20 07:45:01;;;;;;;2.73;1.90;;;26.00;99.90;;;;;;5027143;28;21193;-80
2022/05/20 07:47:30;;;;;;;3.03;1.90;;;26.00;99.90;;;;;;5026348;28;21069;-81
2022/05/20 07:50:03;;;;;;;2.20;2.10;;;26.00;99.90;;;;;;5029706;28;20459;-81
2022/05/20 07:55:26;;;;;;;3.30;2.70;;;26.00;99.90;;;;;;5029391;28;20451;-81
2022/05/20 07:57:55;;;;;;;2.17;2.03;;;25.90;99.90;;;;;;5033283;28;20472;-81
2022/05/20 08:00:25;;;;;;;3.20;2.00;;;25.90;99.90;;;;;;5029608;28;20464;-81
2022/05/20 08:02:56;;;;;;;2.50;2.30;;;26.00;99.90;;;;;;5027202;28;20464;-81
2022/05/20 08:05:24;;;;;;;3.17;2.40;;;26.00;99.90;;;;;;5027685;28;20475;-80
2022/05/20 08:07:55;;;;;;;2.37;2.17;;;26.00;99.90;;;;;;5043042;28;20492;-80
2022/05/20 08:10:25;;;;;;;2.80;2.60;;;26.00;99.90;;;;;;5033546;28;20471;-80
2022/05/20 08:12:53;;;;;;;2.70;2.50;;;26.00;99.90;;;;;;5026410;28;20456;-80
2022/05/20 08:15:22;;;;;;;2.23;1.90;;;26.10;99.90;;;;;;5016008;28;20457;-80
2022/05/20 08:17:50;;;;;;;2.60;2.40;;;26.10;99.90;;;;;;5024575;28;20486;-80
2022/05/20 08:20:28;;;;;;;4.43;2.70;;;26.10;99.90;;;;;;5019224;28;21415;-81
2022/05/20 08:22:58;;;;;;;3.30;2.40;;;26.10;99.90;;;;;;5021892;28;21545;-80
2022/05/20 08:25:28;;;;;;;3.73;2.27;;;26.20;99.90;;;;;;5018883;28;20452;-81
2022/05/20 08:27:57;;;;;;;1.97;1.50;;;26.20;99.90;;;;;;5030233;28;21218;-81
2022/05/20 08:30:27;;;;;;;2.70;2.30;;;26.40;99.90;;;;;;5016500;28;20530;-81
2022/05/20 08:32:55;;;;;;;2.97;2.60;;;26.30;99.90;;;;;;5021321;28;20457;-82
2022/05/20 08:35:26;;;;;;;2.87;2.33;;;26.20;99.90;;;;;;5025606;28;20979;-82
2022/05/20 08:37:55;;;;;;;1.90;1.80;;;26.30;99.90;;;;;;5024731;28;20483;-81
2022/05/20 08:40:29;;;;;;;2.30;2.10;;;26.40;99.90;;;;;;5025459;28;20452;-81
2022/05/20 08:43:01;;;;;;;2.60;2.30;;;26.50;99.90;;;;;;5026391;28;20522;-81
2022/05/20 08:45:31;;;;;;;3.07;2.33;;;26.50;99.90;;;;;;5022216;28;20557;-82
2022/05/20 08:48:00;;;;;;;3.47;2.60;;;26.60;99.90;;;;;;5024386;28;20479;-81
2022/05/20 08:50:36;;;;;;;4.37;3.00;;;26.60;99.90;;;;;;5022812;28;20437;-82
2022/05/20 08:53:13;;;;;;;3.77;3.37;;;26.50;99.90;;;;;;5018884;28;20972;-81
2022/05/20 08:55:42;;;;;;;3.50;2.27;;;26.50;99.90;;;;;;5020091;28;20456;-82
2022/05/20 08:58:16;;;;;;;2.23;2.03;;;26.50;99.90;;;;;;5014392;28;21355;-79
2022/05/20 09:00:45;;;;;;;2.37;1.70;;;26.60;99.90;;;;;;5020254;28;20456;-79
2022/05/20 09:03:13;;;;;;;2.70;2.50;;;26.70;99.90;;;;;;5020413;28;20476;-77
2022/05/20 09:05:43;;;;;;;3.10;1.97;;;26.80;99.90;;;;;;5013269;28;20449;-78
2022/05/20 09:08:24;;;;;;;2.33;2.00;;;26.90;99.90;;;;;;5014697;28;20530;-78
2022/05/20 09:10:54;;;;;;;2.30;1.90;;;26.90;99.90;;;;;;5022245;28;20452;-77
2022/05/20 09:15:43;;;;;;;1.90;1.80;;;26.90;99.90;;;;;;5027376;28;20531;-78
2022/05/20 09:16:14;;;;;;;2.50;2.30;;;27.00;99.90;;;;;;5023324;28;20482;-78
2022/05/20 09:18:45;;;;;;;2.50;2.30;;;26.90;99.90;;;;;;5023848;28;21183;-78
2022/05/20 09:21:27;;;;;;;2.70;2.50;;;27.00;99.90;;;;;;5021297;28;20472;-78
2022/05/20 09:24:01;;;;;;;2.97;2.27;;;27.00;99.90;;;;;;5024192;28;20459;-78
2022/05/20 09:26:35;;;;;;;2.60;2.40;;;27.00;99.90;;;;;;5028758;28;20472;-77
2022/05/20 09:29:09;;;;;;;2.57;2.40;;;27.00;99.90;;;;;;5024740;28;20457;-77
2022/05/20 09:32:00;;;;;;;2.60;2.40;;;27.10;99.90;;;;;;5025716;28;20449;-77
2022/05/20 09:34:34;;;;;;;3.03;2.60;;;27.10;99.90;;;;;;5024450;28;20467;-78
2022/05/20 09:37:05;;;;;;;2.73;2.40;;;27.10;99.90;;;;;;5021219;28;20480;-77
2022/05/20 09:39:36;;;;;;;5.43;3.50;;;27.00;99.90;;;;;;5023483;28;20467;-77
2022/05/20 09:42:13;;;;;;;2.40;2.10;;;27.00;99.90;;;;;;5025773;28;20494;-77
2022/05/20 09:44:45;;;;;;;4.30;2.33;;;27.00;99.90;;;;;;5024819;28;20460;-78
2022/05/20 09:47:24;;;;;;;2.80;2.60;;;27.00;99.90;;;;;;5027844;28;20484;-77
2022/05/20 09:49:55;;;;;;;2.60;2.40;;;27.00;99.90;;;;;;5027908;28;20460;-79
2022/05/20 09:52:34;;;;;;;3.23;2.57;;;27.00;99.90;;;;;;5028299;28;20456;-78
2022/05/20 09:55:07;;;;;;;2.60;2.40;;;27.20;99.90;;;;;;5021759;28;20452;-77
2022/05/20 09:57:39;;;;;;;2.40;2.20;;;27.20;99.90;;;;;;5021012;28;20494;-77
2022/05/20 10:00:15;;;;;;;3.03;2.73;;;27.20;99.90;;;;;;5022227;28;20452;-77
2022/05/20 10:02:51;;;;;;;4.83;3.13;;;27.30;99.90;;;;;;5017605;28;21313;-77
2022/05/20 10:05:28;;;;;;;2.53;2.33;;;27.30;99.90;;;;;;5020044;28;20452;-79
2022/05/20 10:08:06;;;;;;;2.50;2.30;;;27.40;99.90;;;;;;5022175;28;21023;-77
2022/05/20 10:10:52;;;;;;;1.93;1.80;;;27.40;99.90;;;;;;5018918;28;20480;-77
2022/05/20 10:13:29;;;;;;;1.90;1.80;;;27.40;99.90;;;;;;5016229;28;20460;-77
2022/05/20 10:16:10;;;;;;;2.50;1.80;;;27.50;99.90;;;;;;5019921;28;20464;-78
2022/05/20 10:18:47;;;;;;;2.53;2.33;;;27.50;99.90;;;;;;5019087;28;20463;-77
2022/05/20 10:21:38;;;;;;;3.40;2.03;;;27.50;99.90;;;;;;5030050;28;20463;-77
2022/05/20 10:24:17;;;;;;;2.30;1.70;;;27.50;99.90;;;;;;5019978;28;20857;-78
2022/05/20 10:26:52;;;;;;;2.20;1.60;;;27.60;99.90;;;;;;5026335;28;20854;-77
2022/05/20 10:32:36;;;;;;;2.70;2.30;;;27.60;99.90;;;;;;5019712;28;20444;-78
2022/05/20 10:35:09;;;;;;;3.70;2.20;;;27.70;99.90;;;;;;5015013;28;20544;-77
2022/05/20 10:38:01;;;;;;;4.00;3.13;;;27.70;99.90;;;;;;5028227;28;20987;-78
2022/05/20 10:40:47;;;;;;;2.43;2.13;;;27.70;99.90;;;;;;5023641;28;20974;-78
2022/05/20 10:43:27;;;;;;;2.30;2.10;;;27.80;99.90;;;;;;5020136;28;20526;-77
2022/05/20 10:49:07;;;;;;;3.60;2.00;;;27.80;99.90;;;;;;5014420;28;20498;-78
2022/05/20 10:51:50;;;;;;;3.33;2.13;;;27.80;99.90;;;;;;5018980;28;20459;-77
2022/05/20 10:54:40;;;;;;;3.20;1.90;;;27.80;99.90;;;;;;5024409;28;20471;-78
2022/05/20 10:57:35;;;;;;;5.00;2.97;;;27.80;99.90;;;;;;5020100;28;21320;-78
2022/05/20 11:00:10;;;;;;;2.73;2.43;;;27.80;99.90;;;;;;5023531;28;20487;-78
2022/05/20 11:03:19;;;;;;;3.30;2.40;;;27.90;99.90;;;;;;5023703;28;20490;-77
2022/05/20 11:06:12;;;;;;;1.90;1.73;;;27.90;99.90;;;;;;5026811;28;20456;-78
2022/05/20 11:08:52;;;;;;;2.00;1.90;;;27.90;99.90;;;;;;5028158;28;20441;-77
2022/05/20 11:11:53;;;;;;;1.90;1.80;;;28.00;99.90;;;;;;5024423;28;20612;-77
2022/05/20 11:14:40;;;;;;;3.47;1.90;;;28.00;99.90;;;;;;5011153;28;20444;-78
2022/05/20 11:17:31;;;;;;;3.37;2.50;;;28.00;99.90;;;;;;5018101;28;20468;-78
2022/05/20 11:20:11;;;;;;;2.40;1.60;;;28.00;99.90;;;;;;5013833;28;20482;-78
2022/05/20 11:23:24;;;;;;;2.00;1.80;;;28.00;99.90;;;;;;5018991;28;20498;-78
2022/05/20 11:26:23;;;;;;;2.50;1.70;;;28.10;99.90;;;;;;4990998;28;20949;-78
2022/05/20 11:29:27;;;;;;;3.10;1.97;;;28.00;99.90;;;;;;5010826;28;20504;-77
2022/05/20 11:32:01;;;;;;;2.13;1.80;;;28.00;99.90;;;;;;5019817;28;20531;-77
2022/05/20 11:35:17;;;;;;;2.57;2.37;;;28.00;99.90;;;;;;5012550;28;20523;-77
2022/05/20 11:38:09;;;;;;;2.03;1.77;;;28.00;99.90;;;;;;5013204;28;20567;-77
2022/05/20 11:41:04;;;;;;;2.00;1.80;;;28.10;99.90;;;;;;5021404;28;20443;-76
2022/05/20 11:44:00;;;;;;;3.23;3.03;;;28.10;99.90;;;;;;5017554;28;20480;-76
2022/05/20 11:46:43;;;;;;;2.43;2.20;;;28.10;99.90;;;;;;5031114;28;21042;-76
2022/05/20 11:49:35;;;;;;;2.70;2.50;;;28.20;99.90;;;;;;5013735;28;20448;-77
2022/05/20 11:52:28;;;;;;;3.67;2.20;;;28.10;99.90;;;;;;5019042;28;20570;-77
2022/05/20 11:55:02;;;;;;;6.30;2.27;;;28.20;99.90;;;;;;5020406;28;20575;-77
2022/05/20 11:57:38;;;;;;;4.53;2.03;;;28.20;99.90;;;;;;5017144;28;21076;-76
2022/05/20 12:00:10;;;;;;;2.40;2.20;;;28.20;99.90;;;;;;5013888;28;20455;-78
2022/05/20 12:02:42;;;;;;;4.43;2.13;;;28.20;99.90;;;;;;5020119;28;20890;-77
2022/05/20 12:05:12;;;;;;;4.67;2.63;;;28.20;99.90;;;;;;5013408;28;20449;-77
2022/05/20 12:07:41;;;;;;;2.50;2.17;;;28.20;99.90;;;;;;5020076;28;20495;-77
2022/05/20 12:10:49;;;;;;;4.90;3.10;;;28.20;99.90;;;;;;5020798;28;20558;-76
2022/05/20 12:13:21;;;;;;;3.20;1.90;;;28.30;99.90;;;;;;5014156;28;20463;-78
2022/05/20 12:16:09;;;;;;;3.40;1.90;;;28.30;99.90;;;;;;5019880;28;21050;-76
2022/05/20 12:24:38;;;;;;;2.53;2.33;;;28.40;99.90;;;;;;5014889;28;21023;-80
2022/05/20 12:27:33;;;;;;;4.40;2.47;;;28.50;99.90;;;;;;5021778;28;20502;-79
2022/05/20 12:30:07;;;;;;;2.60;2.10;;;28.60;99.90;;;;;;5026498;28;20461;-81
2022/05/20 12:32:53;;;;;;;2.80;2.17;;;28.70;99.90;;;;;;5026391;28;20456;-81
2022/05/20 12:35:27;;;;;;;2.27;2.00;;;28.70;99.90;;;;;;5021480;28;20822;-81
2022/05/20 12:38:15;;;;;;;2.27;2.07;;;28.80;99.90;;;;;;5025119;28;20481;-80
2022/05/20 12:41:02;;;;;;;3.50;1.90;;;28.90;99.90;;;;;;5023906;28;20468;-81
2022/05/20 12:43:54;;;;;;;2.80;1.80;;;29.00;99.90;;;;;;5030569;28;20504;-81
2022/05/20 12:46:59;;;;;;;2.40;2.20;;;29.00;99.90;;;;;;5030778;28;20538;-81
2022/05/20 12:49:32;;;;;;;4.87;2.60;;;29.20;99.90;;;;;;5029511;28;20944;-81
2022/05/20 12:52:12;;;;;;;5.00;1.80;;;29.10;99.90;;;;;;5031497;28;20464;-81
2022/05/20 12:54:45;;;;;;;1.70;1.60;;;29.20;99.90;;;;;;5032736;28;23123;-80
2022/05/20 12:57:17;;;;;;;4.10;1.73;;;29.30;99.90;;;;;;5031576;28;20473;-81
2022/05/20 12:59:51;;;;;;;3.30;1.90;;;29.40;99.90;;;;;;5029724;28;21002;-81
2022/05/20 13:02:29;;;;;;;2.77;2.00;;;29.40;99.90;;;;;;5025142;28;20524;-80
2022/05/20 13:05:04;;;;;;;4.17;2.20;;;29.40;99.90;;;;;;5033708;28;20488;-81
2022/05/20 13:07:38;;;;;;;2.20;1.97;;;29.40;99.90;;;;;;5037300;28;20507;-79
2022/05/20 13:10:25;;;;;;;2.00;1.77;;;29.50;99.90;;;;;;5035687;28;20507;-80
2022/05/20 13:12:55;;;;;;;3.30;1.57;;;29.60;99.90;;;;;;5031232;28;20484;-80
2022/05/20 13:15:25;;;;;;;1.60;1.50;;;29.60;99.90;;;;;;5027458;28;20468;-80
2022/05/20 13:18:01;;;;;;;4.50;1.80;;;29.50;99.90;;;;;;5024412;28;20476;-80
2022/05/20 13:20:32;;;;;;;2.77;1.60;;;29.40;99.90;;;;;;5015411;28;20459;-80
2022/05/20 13:23:03;;;;;;;4.30;1.47;;;29.40;99.90;;;;;;5019392;28;21001;-80
2022/05/20 13:25:31;;;;;;;3.00;2.00;;;29.40;99.90;;;;;;5018599;28;20557;-81
2022/05/20 13:28:00;;;;;;;5.47;1.60;;;29.50;99.90;;;;;;5023031;28;20503;-80
2022/05/20 13:30:31;;;;;;;3.60;1.90;;;29.50;99.90;;;;;;5016057;28;20461;-80
2022/05/20 13:33:05;;;;;;;2.20;1.70;;;29.60;99.90;;;;;;5016996;28;20451;-81
2022/05/20 13:35:40;;;;;;;3.27;1.90;;;29.70;99.90;;;;;;5022587;28;20460;-81
2022/05/20 13:38:12;;;;;;;2.70;1.83;;;29.70;99.90;;;;;;5021695;28;20475;-80
2022/05/20 13:40:42;;;;;;;3.07;1.97;;;29.80;99.90;;;;;;5021355;28;20468;-81
2022/05/20 13:43:11;;;;;;;1.83;1.73;;;29.80;99.90;;;;;;5020571;28;20453;-80
2022/05/20 13:51:27;;;;;;;2.00;1.80;;;29.80;99.90;;;;;;5012276;28;20515;-80
2022/05/20 13:53:58;;;;;;;3.30;2.07;;;29.80;99.90;;;;;;5026938;28;20952;-81
2022/05/20 13:56:31;;;;;;;1.90;1.30;;;29.90;99.90;;;;;;5023793;28;20479;-81
2022/05/20 13:59:03;;;;;;;1.83;1.50;;;30.00;99.90;;;;;;5020690;28;20465;-82